createdAt,value
2023-03-02T00:01:43.125Z,12.37
2023-03-02T00:04:12.076Z,11.90
2023-03-02T00:06:38.284Z,12.97
2023-03-02T00:09:05.416Z,15.40
2023-03-02T00:11:31.984Z,9.97
2023-03-02T00:13:57.700Z,8.80
2023-03-02T00:16:23.534Z,12.57
2023-03-02T00:18:49.298Z,11.47
2023-03-02T00:21:15.223Z,12.13
2023-03-02T00:23:41.016Z,16.97
2023-03-02T00:26:06.729Z,10.03
2023-03-02T00:28:33.044Z,10.37
2023-03-02T00:30:58.781Z,8.87
2023-03-02T00:33:24.818Z,11.57
2023-03-02T00:35:50.739Z,11.80
2023-03-02T00:38:16.598Z,17.03
2023-03-02T00:40:46.212Z,16.03
2023-03-02T00:43:12.259Z,15.63
2023-03-02T00:45:37.981Z,16.17
2023-03-02T00:48:04.013Z,16.03
2023-03-02T00:50:29.737Z,14.23
2023-03-02T00:52:55.515Z,12.57
2023-03-02T00:55:21.222Z,18.17
2023-03-02T00:57:54.357Z,14.87
2023-03-02T01:00:21.569Z,15.03
2023-03-02T01:02:47.508Z,15.13
2023-03-02T01:05:13.705Z,20.80
2023-03-02T01:07:39.458Z,15.67
2023-03-02T01:10:05.514Z,16.27
2023-03-02T01:12:31.806Z,15.63
2023-03-02T01:14:57.636Z,21.17
2023-03-02T01:17:24.612Z,16.53
2023-03-02T01:19:50.811Z,18.77
2023-03-02T01:22:16.828Z,13.87
2023-03-02T01:24:42.566Z,21.87
2023-03-02T01:27:08.337Z,14.93
2023-03-02T01:29:34.050Z,18.60
2023-03-02T01:31:59.969Z,15.80
2023-03-02T01:34:26.134Z,13.83
2023-03-02T01:36:51.838Z,15.33
2023-03-02T01:39:17.805Z,12.97
2023-03-02T01:41:44.603Z,17.27
2023-03-02T01:44:33.851Z,16.37
2023-03-02T01:46:59.860Z,15.60
2023-03-02T01:49:25.911Z,14.27
2023-03-02T01:51:51.854Z,11.77
2023-03-02T01:54:22.274Z,13.10
2023-03-02T01:56:50.764Z,11.48
2023-03-02T01:59:18.996Z,14.33
2023-03-02T02:01:46.755Z,13.47
2023-03-02T02:04:13.395Z,13.97
2023-03-02T02:06:44.968Z,15.07
2023-03-02T02:09:13.596Z,12.00
2023-03-02T02:11:39.356Z,14.50
2023-03-02T02:14:05.829Z,13.20
2023-03-02T02:16:32.901Z,12.77
2023-03-02T02:18:59.182Z,16.23
2023-03-02T02:21:25.590Z,14.67
2023-03-02T02:24:01.263Z,15.20
2023-03-02T02:26:34.731Z,13.47
2023-03-02T02:29:04.289Z,14.73
2023-03-02T02:31:34.385Z,14.50
2023-03-02T02:34:03.261Z,11.77
2023-03-02T02:36:32.731Z,15.50
2023-03-02T02:39:01.009Z,17.38
2023-03-02T02:41:28.887Z,15.70
2023-03-02T02:43:54.876Z,15.07
2023-03-02T02:46:21.005Z,13.47
2023-03-02T02:48:46.745Z,15.70
2023-03-02T02:51:15.573Z,12.87
2023-03-02T02:53:44.020Z,10.83
2023-03-02T02:56:10.527Z,12.77
2023-03-02T02:58:39.453Z,12.60
2023-03-02T03:01:06.175Z,12.17
2023-03-02T03:03:33.733Z,16.57
2023-03-02T03:06:02.055Z,20.43
2023-03-02T03:08:39.683Z,18.47
2023-03-02T03:11:05.419Z,15.20
2023-03-02T03:13:31.712Z,17.60
2023-03-02T03:15:57.620Z,15.33
2023-03-02T03:18:23.924Z,14.47
2023-03-02T03:20:49.688Z,15.67
2023-03-02T03:23:15.457Z,13.27
2023-03-02T03:25:41.901Z,17.87
2023-03-02T03:28:07.743Z,15.20
2023-03-02T03:30:33.493Z,14.17
2023-03-02T03:32:59.259Z,12.87
2023-03-02T03:35:25.056Z,13.27
2023-03-02T03:37:51.075Z,15.33
2023-03-02T03:40:16.851Z,20.60
2023-03-02T03:42:42.794Z,15.53
2023-03-02T03:45:08.680Z,15.93
2023-03-02T03:47:34.620Z,18.17
2023-03-02T03:50:00.314Z,21.20
2023-03-02T03:52:31.841Z,23.00
2023-03-02T03:55:00.773Z,17.40
2023-03-02T03:57:27.337Z,17.83
2023-03-02T03:59:53.800Z,16.93
2023-03-02T04:02:20.075Z,15.30
2023-03-02T04:04:45.826Z,17.90
2023-03-02T04:07:12.068Z,15.07
2023-03-02T04:09:38.604Z,15.47
2023-03-02T04:12:05.453Z,15.30
2023-03-02T04:14:31.249Z,15.93
2023-03-02T04:16:57.183Z,19.83
2023-03-02T04:19:23.443Z,17.07
2023-03-02T04:21:50.374Z,18.50
2023-03-02T04:24:17.250Z,14.43
2023-03-02T04:26:43.176Z,13.87
2023-03-02T04:29:09.886Z,23.53
2023-03-02T04:31:35.880Z,20.70
2023-03-02T04:34:04.408Z,14.57
2023-03-02T04:36:32.853Z,20.33
2023-03-02T04:38:58.756Z,20.10
2023-03-02T04:41:24.583Z,13.77
2023-03-02T04:43:51.896Z,19.07
2023-03-02T04:46:19.339Z,22.87
2023-03-02T04:48:45.178Z,17.97
2023-03-02T04:51:23.470Z,18.10
2023-03-02T04:53:53.372Z,18.53
2023-03-02T04:56:19.254Z,17.33
2023-03-02T04:58:45.067Z,21.20
2023-03-02T05:01:11.593Z,24.30
2023-03-02T05:03:37.468Z,29.13
2023-03-02T05:06:03.429Z,26.87
2023-03-02T05:08:29.800Z,24.57
2023-03-02T05:10:55.691Z,26.63
2023-03-02T05:13:21.425Z,33.23
2023-03-02T05:15:47.174Z,32.03
2023-03-02T05:18:12.985Z,25.80
2023-03-02T05:20:39.017Z,29.00
2023-03-02T05:23:06.088Z,27.90
2023-03-02T05:25:32.621Z,31.17
2023-03-02T05:27:58.503Z,30.17
2023-03-02T05:30:24.741Z,31.23
2023-03-02T05:32:51.340Z,27.23
2023-03-02T05:35:17.841Z,28.13
2023-03-02T05:37:44.254Z,32.50
2023-03-02T05:40:11.784Z,33.70
2023-03-02T05:42:37.892Z,29.63
2023-03-02T05:45:04.600Z,31.57
2023-03-02T05:47:30.342Z,32.87
2023-03-02T05:49:56.210Z,32.10
2023-03-02T05:52:21.953Z,31.63
2023-03-02T05:54:47.651Z,35.20
2023-03-02T05:57:13.440Z,33.83
2023-03-02T05:59:39.229Z,38.23
2023-03-02T06:02:05.302Z,41.13
2023-03-02T06:04:31.196Z,38.27
2023-03-02T06:06:56.954Z,35.47
2023-03-02T06:09:22.790Z,39.63
2023-03-02T06:11:48.729Z,36.20
2023-03-02T06:14:14.591Z,35.73
2023-03-02T06:16:40.459Z,37.37
2023-03-02T06:19:06.569Z,43.10
2023-03-02T06:21:32.597Z,32.63
2023-03-02T06:23:58.511Z,29.67
2023-03-02T06:26:24.731Z,33.57
2023-03-02T06:28:53.444Z,37.97
2023-03-02T06:31:20.131Z,39.40
2023-03-02T06:33:52.221Z,31.67
2023-03-02T06:36:18.150Z,32.90
2023-03-02T06:38:44.606Z,36.10
2023-03-02T06:41:10.502Z,34.53
2023-03-02T06:43:36.388Z,32.43
2023-03-02T06:46:02.496Z,31.87
2023-03-02T06:48:28.522Z,37.10
2023-03-02T06:50:54.401Z,33.90
2023-03-02T06:53:22.703Z,34.87
2023-03-02T06:55:48.871Z,37.63
2023-03-02T06:58:14.798Z,31.00
2023-03-02T07:00:40.536Z,32.57
2023-03-02T07:03:11.532Z,33.30
2023-03-02T07:05:37.299Z,36.33
2023-03-02T07:08:03.517Z,33.87
2023-03-02T07:10:29.497Z,29.17
2023-03-02T07:12:55.332Z,34.73
2023-03-02T07:15:21.603Z,32.83
2023-03-02T07:17:47.570Z,32.83
2023-03-02T07:20:15.210Z,28.90
2023-03-02T07:22:41.221Z,28.87
2023-03-02T07:25:07.785Z,33.27
2023-03-02T07:27:33.601Z,27.70
2023-03-02T07:29:59.586Z,32.43
2023-03-02T07:32:25.694Z,30.13
2023-03-02T07:35:03.547Z,37.00
2023-03-02T07:37:29.372Z,34.50
2023-03-02T07:39:55.335Z,32.13
2023-03-02T07:42:21.201Z,34.20
2023-03-02T07:44:47.552Z,32.20
2023-03-02T07:47:13.366Z,31.83
2023-03-02T07:49:39.252Z,33.23
2023-03-02T07:52:05.330Z,34.67
2023-03-02T07:54:31.579Z,31.03
2023-03-02T07:56:57.872Z,33.33
2023-03-02T07:59:24.014Z,31.30
2023-03-02T08:01:49.977Z,32.73
2023-03-02T08:04:25.183Z,32.80
2023-03-02T08:06:51.242Z,36.80
2023-03-02T08:09:17.241Z,30.87
2023-03-02T08:11:44.157Z,36.37
2023-03-02T08:14:11.262Z,34.20
2023-03-02T08:16:38.307Z,29.87
2023-03-02T08:19:04.234Z,31.23
2023-03-02T08:21:30.140Z,33.40
2023-03-02T08:23:57.601Z,32.30
2023-03-02T08:26:23.471Z,28.27
2023-03-02T08:28:49.423Z,33.17
2023-03-02T08:31:15.633Z,26.77
2023-03-02T08:33:50.245Z,31.63
2023-03-02T08:36:17.442Z,33.03
2023-03-02T08:38:43.831Z,29.03
2023-03-02T08:41:11.287Z,31.57
2023-03-02T08:43:37.335Z,28.90
2023-03-02T08:46:03.288Z,31.40
2023-03-02T08:48:29.576Z,27.33
2023-03-02T08:50:55.582Z,31.60
2023-03-02T08:53:21.649Z,32.37
2023-03-02T08:55:47.390Z,29.77
2023-03-02T08:58:13.213Z,33.47
2023-03-02T09:00:39.236Z,29.07
2023-03-02T09:03:20.187Z,30.50
2023-03-02T09:05:46.084Z,36.07
2023-03-02T09:08:12.744Z,28.43
2023-03-02T09:10:38.969Z,34.47
2023-03-02T09:13:06.832Z,32.00
2023-03-02T09:15:34.427Z,30.73
2023-03-02T09:18:00.245Z,30.93
2023-03-02T09:20:26.785Z,29.67
2023-03-02T09:22:52.641Z,31.43
2023-03-02T09:25:18.629Z,35.63
2023-03-02T09:27:45.667Z,35.03
2023-03-02T09:30:12.020Z,33.10
2023-03-02T09:32:38.192Z,35.17
2023-03-02T09:35:04.342Z,34.30
2023-03-02T09:37:30.234Z,36.93
2023-03-02T09:39:56.096Z,32.70
2023-03-02T09:42:43.268Z,35.10
2023-03-02T09:45:28.721Z,37.07
2023-03-02T09:48:15.927Z,28.97
2023-03-02T09:50:50.538Z,33.83
2023-03-02T09:53:24.375Z,31.93
2023-03-02T09:55:59.584Z,34.17
2023-03-02T09:58:28.920Z,36.10
2023-03-02T10:00:54.775Z,32.67
2023-03-02T10:03:27.441Z,31.47
2023-03-02T10:05:54.226Z,34.43
2023-03-02T10:08:24.418Z,35.00
2023-03-02T10:11:05.293Z,34.53
2023-03-02T10:13:34.492Z,34.57
2023-03-02T10:16:08.111Z,34.13
2023-03-02T10:18:39.613Z,40.87
2023-03-02T10:21:05.468Z,34.07
2023-03-02T10:23:45.745Z,37.73
2023-03-02T10:26:18.931Z,31.63
2023-03-02T10:28:48.903Z,38.17
2023-03-02T10:31:20.856Z,33.72
2023-03-02T10:33:47.912Z,37.93
2023-03-02T10:36:21.014Z,37.40
2023-03-02T10:38:47.179Z,39.23
2023-03-02T10:41:16.440Z,40.60
2023-03-02T10:43:45.121Z,38.00
2023-03-02T10:46:12.111Z,39.15
2023-03-02T10:48:51.822Z,34.67
2023-03-02T10:51:31.291Z,38.43
2023-03-02T10:54:03.367Z,36.57
2023-03-02T10:56:29.550Z,43.53
2023-03-02T10:59:02.779Z,37.57
2023-03-02T11:01:29.877Z,35.93
2023-03-02T11:04:01.843Z,39.20
2023-03-02T11:06:28.419Z,40.33
2023-03-02T11:09:01.391Z,36.80
2023-03-02T11:11:27.444Z,39.63
2023-03-02T11:13:55.937Z,38.17
2023-03-02T11:16:27.589Z,40.43
2023-03-02T11:19:32.004Z,39.25
2023-03-02T11:21:57.764Z,38.83
2023-03-02T11:24:29.366Z,41.87
2023-03-02T11:27:13.900Z,40.50
2023-03-02T11:29:58.751Z,34.80
2023-03-02T11:32:29.882Z,40.22
2023-03-02T11:34:57.880Z,36.92
2023-03-02T11:37:27.270Z,29.08
2023-03-02T11:40:11.710Z,35.13
2023-03-02T11:42:41.987Z,26.75
2023-03-02T11:45:13.980Z,35.53
2023-03-02T11:48:02.153Z,34.75
2023-03-02T11:50:29.345Z,37.05
2023-03-02T11:53:15.286Z,34.42
2023-03-02T11:55:47.723Z,33.97
2023-03-02T11:58:18.242Z,35.85
2023-03-02T12:00:44.518Z,29.77
2023-03-02T12:03:16.891Z,32.35
2023-03-02T12:05:45.052Z,36.55
2023-03-02T12:08:20.186Z,32.72
2023-03-02T12:10:57.489Z,35.28
2023-03-02T12:13:37.363Z,34.50
2023-03-02T12:16:04.569Z,32.85
2023-03-02T12:18:40.195Z,31.38
2023-03-02T12:21:09.015Z,31.50
2023-03-02T12:23:39.744Z,35.63
2023-03-02T12:28:35.042Z,39.38
2023-03-02T12:31:02.550Z,33.53
2023-03-02T12:33:54.914Z,32.33
2023-03-02T12:36:21.747Z,33.03
2023-03-02T12:38:52.635Z,31.85
2023-03-02T12:41:31.526Z,37.90
2023-03-02T12:44:02.577Z,31.45
2023-03-02T12:46:31.815Z,30.58
2023-03-02T12:49:08.492Z,33.50
2023-03-02T12:51:50.446Z,32.15
2023-03-02T12:54:21.251Z,27.52
2023-03-02T12:59:20.344Z,32.58
2023-03-02T13:01:46.247Z,34.72
2023-03-02T13:04:23.109Z,31.92
2023-03-02T13:12:44.105Z,27.55
2023-03-02T13:15:13.607Z,26.90
2023-03-02T13:17:39.457Z,27.05
2023-03-02T13:20:05.715Z,27.15
2023-03-02T13:22:32.069Z,25.13
2023-03-02T13:25:01.386Z,26.77
2023-03-02T13:27:27.910Z,28.55
2023-03-02T13:30:02.262Z,24.73
2023-03-02T13:41:22.747Z,24.83
2023-03-02T13:43:48.769Z,24.58
2023-03-02T13:46:17.659Z,27.67
2023-03-02T13:49:07.482Z,24.42
2023-03-02T13:51:37.354Z,29.67
2023-03-02T13:54:05.502Z,25.50
2023-03-02T13:56:32.930Z,23.00
2023-03-02T13:58:59.485Z,22.80
2023-03-02T14:01:28.613Z,27.15
2023-03-02T14:04:32.055Z,25.25
2023-03-02T14:06:58.260Z,26.88
2023-03-02T14:09:26.475Z,21.77
2023-03-02T14:11:53.199Z,20.83
2023-03-02T14:14:20.516Z,20.63
2023-03-02T14:16:46.472Z,21.80
2023-03-02T14:19:13.399Z,17.33
2023-03-02T14:21:39.509Z,22.40
2023-03-02T14:24:05.805Z,22.83
2023-03-02T14:26:40.295Z,19.42
2023-03-02T14:29:26.086Z,18.23
2023-03-02T14:31:55.155Z,18.42
2023-03-02T14:35:06.813Z,19.80
2023-03-02T14:37:32.912Z,18.42
2023-03-02T14:39:59.043Z,18.80
2023-03-02T14:42:24.932Z,17.92
2023-03-02T14:44:51.604Z,18.70
2023-03-02T14:47:18.946Z,20.58
2023-03-02T14:49:45.133Z,21.50
2023-03-02T14:52:22.802Z,17.52
2023-03-02T14:54:57.308Z,19.02
2023-03-02T14:57:24.710Z,19.63
2023-03-02T14:59:51.269Z,19.80
2023-03-02T15:02:25.804Z,21.70
2023-03-02T15:05:23.963Z,18.88
2023-03-02T15:07:50.169Z,19.60
2023-03-02T15:10:18.572Z,14.35
2023-03-02T15:12:44.788Z,18.13
2023-03-02T15:15:10.995Z,18.58
2023-03-02T15:17:37.001Z,16.50
2023-03-02T15:20:03.200Z,18.00
2023-03-02T15:22:29.064Z,18.63
2023-03-02T15:24:55.055Z,16.88
2023-03-02T15:27:22.526Z,17.27
2023-03-02T15:29:49.338Z,17.67
2023-03-02T15:32:15.781Z,15.93
2023-03-02T15:34:41.945Z,19.87
2023-03-02T15:37:09.426Z,17.07
2023-03-02T15:39:35.443Z,14.73
2023-03-02T15:42:01.685Z,15.43
2023-03-02T15:44:29.090Z,16.67
2023-03-02T15:46:55.931Z,16.80
2023-03-02T15:49:24.269Z,15.97
2023-03-02T15:51:51.432Z,18.97
2023-03-02T15:54:17.516Z,16.43
2023-03-02T15:56:44.635Z,16.17
2023-03-02T15:59:11.113Z,17.63
2023-03-02T16:01:37.160Z,17.50
2023-03-02T16:04:03.273Z,14.80
2023-03-02T16:06:29.681Z,29.50
2023-03-02T16:08:55.562Z,15.83
2023-03-02T16:11:22.926Z,18.57
2023-03-02T16:13:51.138Z,16.13
2023-03-02T16:16:17.429Z,18.10
2023-03-02T16:18:43.924Z,19.37
2023-03-02T16:21:13.067Z,12.93
2023-03-02T16:23:39.086Z,13.80
2023-03-02T16:26:11.539Z,16.20
2023-03-02T16:28:39.223Z,15.33
2023-03-02T16:31:10.092Z,17.30
2023-03-02T16:33:49.694Z,17.13
2023-03-02T16:36:15.807Z,21.17
2023-03-02T16:38:42.063Z,18.30
2023-03-02T16:41:26.064Z,20.00
2023-03-02T16:43:53.607Z,19.80
2023-03-02T16:46:20.022Z,22.67
2023-03-02T16:48:46.432Z,21.57
2023-03-02T16:51:12.493Z,18.07
2023-03-02T16:53:40.212Z,19.70
2023-03-02T16:56:07.156Z,21.30
2023-03-02T16:58:33.152Z,23.47
2023-03-02T17:00:59.259Z,21.07
2023-03-02T17:03:28.275Z,17.70
2023-03-02T17:05:54.184Z,18.87
2023-03-02T17:08:20.082Z,19.20
2023-03-02T17:10:46.067Z,20.33
2023-03-02T17:13:14.929Z,18.13
2023-03-02T17:15:41.163Z,18.30
2023-03-02T17:18:07.229Z,18.37
2023-03-02T17:20:33.746Z,18.60
2023-03-02T17:22:59.736Z,22.63
2023-03-02T17:25:25.878Z,18.00
2023-03-02T17:27:51.849Z,20.77
2023-03-02T17:30:18.000Z,20.33
2023-03-02T17:32:43.914Z,17.93
2023-03-02T17:35:22.192Z,19.17
2023-03-02T17:37:48.334Z,22.83
2023-03-02T17:40:15.950Z,20.33
2023-03-02T17:42:42.318Z,20.70
2023-03-02T17:45:08.634Z,24.90
2023-03-02T17:47:35.115Z,19.03
2023-03-02T17:50:02.517Z,21.97
2023-03-02T17:52:29.325Z,22.33
2023-03-02T17:54:55.118Z,22.37
2023-03-02T17:57:22.084Z,24.23
2023-03-02T17:59:49.651Z,22.77
2023-03-02T18:02:16.508Z,26.07
2023-03-02T18:04:47.290Z,21.67
2023-03-02T18:07:13.103Z,22.27
2023-03-02T18:09:39.145Z,20.73
2023-03-02T18:12:05.456Z,27.03
2023-03-02T18:14:31.237Z,23.37
2023-03-02T18:16:57.342Z,21.60
2023-03-02T18:19:23.224Z,20.17
2023-03-02T18:21:49.114Z,20.17
2023-03-02T18:24:15.106Z,21.47
2023-03-02T18:26:41.140Z,25.80
2023-03-02T18:29:07.025Z,20.37
2023-03-02T18:31:33.679Z,21.77
2023-03-02T18:34:00.192Z,20.20
2023-03-02T18:36:26.626Z,20.20
2023-03-02T18:38:54.357Z,20.27
2023-03-02T18:41:21.059Z,19.70
2023-03-02T18:43:47.322Z,20.47
2023-03-02T18:46:21.654Z,20.27
2023-03-02T18:48:48.901Z,17.30
2023-03-02T18:51:14.668Z,33.87
2023-03-02T18:53:42.429Z,38.97
2023-03-02T18:56:08.665Z,43.00
2023-03-02T18:58:35.184Z,19.70
2023-03-02T19:01:01.385Z,19.77
2023-03-02T19:03:30.283Z,21.33
2023-03-02T19:05:58.108Z,19.63
2023-03-02T19:08:24.761Z,20.77
2023-03-02T19:10:51.561Z,21.90
2023-03-02T19:13:18.178Z,29.07
2023-03-02T19:15:44.608Z,21.67
2023-03-02T19:18:13.582Z,23.13
2023-03-02T19:20:39.360Z,53.13
2023-03-02T19:23:05.096Z,23.67
2023-03-02T19:25:30.974Z,126.00
2023-03-02T19:27:56.797Z,84.17
2023-03-02T19:30:24.339Z,29.70
2023-03-02T19:32:53.326Z,69.50
2023-03-02T19:35:20.812Z,76.63
2023-03-02T19:37:46.835Z,51.30
2023-03-02T19:40:13.463Z,22.60
2023-03-02T19:42:39.370Z,70.30
2023-03-02T19:45:06.609Z,20.73
2023-03-02T19:47:32.419Z,32.67
2023-03-02T19:49:58.238Z,43.23
2023-03-02T19:52:24.679Z,52.33
2023-03-02T19:54:50.408Z,20.40
2023-03-02T19:57:16.232Z,39.33
2023-03-02T19:59:42.254Z,60.70
2023-03-02T20:02:08.337Z,30.33
2023-03-02T20:04:36.676Z,21.00
2023-03-02T20:07:02.800Z,25.57
2023-03-02T20:09:28.564Z,27.77
2023-03-02T20:11:54.308Z,27.63
2023-03-02T20:14:32.684Z,33.43
2023-03-02T20:17:00.199Z,74.47
2023-03-02T20:19:26.002Z,42.93
2023-03-02T20:21:51.767Z,25.53
2023-03-02T20:24:17.612Z,46.57
2023-03-02T20:26:43.597Z,62.63
2023-03-02T20:29:09.760Z,48.57
2023-03-02T20:31:37.107Z,33.57
2023-03-02T20:34:13.647Z,37.63
2023-03-02T20:36:39.652Z,38.50
2023-03-02T20:39:15.546Z,42.03
2023-03-02T20:41:41.477Z,21.20
2023-03-02T20:44:07.795Z,48.77
2023-03-02T20:46:36.122Z,53.83
2023-03-02T20:49:02.816Z,70.03
2023-03-02T20:51:29.051Z,70.80
2023-03-02T20:53:55.455Z,43.90
2023-03-02T20:56:21.860Z,51.70
2023-03-02T20:58:47.919Z,37.43
2023-03-02T21:01:14.948Z,35.73
2023-03-02T21:03:41.053Z,38.13
2023-03-02T21:06:06.818Z,68.43
2023-03-02T21:08:38.015Z,56.33
2023-03-02T21:11:12.401Z,45.87
2023-03-02T21:13:38.722Z,33.90
2023-03-02T21:16:06.490Z,50.17
2023-03-02T21:18:34.194Z,47.23
2023-03-02T21:21:03.204Z,37.20
2023-03-02T21:23:29.345Z,42.77
2023-03-02T21:25:56.055Z,30.90
2023-03-02T21:28:22.072Z,30.80
2023-03-02T21:30:48.338Z,32.80
2023-03-02T21:33:14.192Z,31.67
2023-03-02T21:35:40.010Z,48.13
2023-03-02T21:38:06.207Z,17.47
2023-03-02T21:40:34.533Z,22.80
2023-03-02T21:43:00.491Z,41.23
2023-03-02T21:45:26.269Z,40.30
2023-03-02T21:47:52.212Z,55.40
2023-03-02T21:50:22.030Z,32.17
2023-03-02T21:52:47.939Z,35.40
2023-03-02T21:55:15.158Z,31.70
2023-03-02T21:57:41.376Z,44.60
2023-03-02T22:00:10.031Z,49.93
2023-03-02T22:02:36.219Z,39.20
2023-03-02T22:05:03.952Z,42.13
2023-03-02T22:07:30.818Z,44.43
2023-03-02T22:09:56.719Z,29.57
2023-03-02T22:12:23.267Z,24.90
2023-03-02T22:14:50.109Z,27.70
2023-03-02T22:17:17.487Z,19.10
2023-03-02T22:19:43.984Z,21.50
2023-03-02T22:22:23.782Z,31.27
2023-03-02T22:24:50.379Z,38.47
2023-03-02T22:27:26.191Z,37.20
2023-03-02T22:29:54.040Z,28.77
2023-03-02T22:32:20.282Z,25.93
2023-03-02T22:34:47.073Z,32.67
2023-03-02T22:37:17.434Z,36.87
2023-03-02T22:39:43.879Z,34.92
2023-03-02T22:42:10.152Z,31.83
2023-03-02T22:44:35.991Z,50.07
2023-03-02T22:47:04.768Z,35.67
2023-03-02T22:49:32.115Z,28.53
2023-03-02T22:52:00.933Z,26.63
2023-03-02T22:54:30.839Z,23.47
2023-03-02T22:56:56.611Z,30.15
2023-03-02T22:59:24.059Z,24.10
2023-03-02T23:01:50.479Z,32.70
2023-03-02T23:04:17.750Z,29.53
2023-03-02T23:06:49.756Z,33.43
2023-03-02T23:09:17.146Z,48.73
2023-03-02T23:11:44.064Z,55.40
2023-03-02T23:14:21.205Z,35.87
2023-03-02T23:17:00.910Z,37.07
2023-03-02T23:19:27.995Z,26.93
2023-03-02T23:21:54.273Z,31.10
2023-03-02T23:24:21.352Z,35.60
2023-03-02T23:26:48.370Z,25.47
2023-03-02T23:29:14.906Z,32.67
2023-03-02T23:31:40.659Z,39.67
2023-03-02T23:34:06.438Z,27.03
2023-03-02T23:36:32.146Z,22.27
2023-03-02T23:38:58.054Z,28.37
2023-03-02T23:41:23.786Z,40.07
2023-03-02T23:43:49.559Z,27.50
2023-03-02T23:46:15.560Z,31.97
2023-03-02T23:48:42.076Z,62.53
2023-03-02T23:51:08.154Z,26.70
2023-03-02T23:53:33.905Z,33.43
2023-03-02T23:55:59.770Z,27.67
2023-03-02T23:58:25.535Z,41.57
